Time;durP1;ratioP1;P1;durP2;ratioP2;P2;SDS_P1;SDS_P2;PMS_P1;PMS_P2;Temp;Humidity;BMP_temperature;BMP_pressure;BME280_temperature;BME280_humidity;BME280_pressure;Samples;Min_cycle;Max_cycle;Signal;HPM_P1;HPM_P2
2022/04/10 00:01:38;;;;;;;5.00;3.45;;;;;;;;;;5094300;28;20202;-67
2022/04/10 00:04:06;;;;;;;6.10;4.70;;;;;;;;;;5094460;28;20195;-67
2022/04/10 00:06:33;;;;;;;3.45;3.15;;;;;;;;;;5094873;28;20194;-67
2022/04/10 00:09:00;;;;;;;6.47;3.08;;;;;;;;;;5093994;28;20205;-67
2022/04/10 00:11:30;;;;;;;10.68;3.25;;;;;;;;;;5094409;28;20282;-67
2022/04/10 00:13:57;;;;;;;7.10;2.85;;;;;;;;;;5093903;28;20247;-67
2022/04/10 00:16:25;;;;;;;8.80;2.83;;;;;;;;;;5094784;28;20225;-68
2022/04/10 00:18:52;;;;;;;7.85;3.50;;;;;;;;;;5094434;28;20251;-68
2022/04/10 00:21:19;;;;;;;8.20;3.60;;;;;;;;;;5094420;28;20232;-68
2022/04/10 00:23:46;;;;;;;4.47;2.72;;;;;;;;;;5094484;28;20206;-69
2022/04/10 00:26:14;;;;;;;7.50;2.83;;;;;;;;;;5094152;28;20198;-68
2022/04/10 00:28:42;;;;;;;7.75;3.35;;;;;;;;;;5093963;28;20290;-68
2022/04/10 00:31:10;;;;;;;5.78;3.30;;;;;;;;;;5094355;28;20205;-68
2022/04/10 00:33:37;;;;;;;7.80;3.33;;;;;;;;;;5094362;28;20236;-67
2022/04/10 00:36:04;;;;;;;14.43;3.25;;;;;;;;;;5093618;28;20601;-67
2022/04/10 00:38:32;;;;;;;8.25;4.20;;;;;;;;;;5093895;28;20193;-68
2022/04/10 00:40:59;;;;;;;4.55;3.20;;;;;;;;;;5093597;28;20751;-68
2022/04/10 00:43:32;;;;;;;15.20;5.72;;;;;;;;;;5093785;28;20285;-68
2022/04/10 00:46:00;;;;;;;6.18;3.50;;;;;;;;;;5093289;28;20314;-67
2022/04/10 00:48:28;;;;;;;4.85;3.03;;;;;;;;;;5094039;28;20552;-69
2022/04/10 00:53:56;;;;;;;3.88;3.15;;;;;;;;;;5031127;28;20192;-70
2022/04/10 00:56:23;;;;;;;8.32;3.17;;;;;;;;;;5031055;28;20327;-68
2022/04/10 00:58:50;;;;;;;5.13;3.47;;;;;;;;;;5058260;28;20746;-67
2022/04/10 01:01:19;;;;;;;7.03;3.50;;;;;;;;;;5093826;28;20193;-68
2022/04/10 01:03:46;;;;;;;5.15;3.45;;;;;;;;;;5093509;28;20195;-68
2022/04/10 01:06:13;;;;;;;7.80;3.88;;;;;;;;;;5093734;28;20300;-67
2022/04/10 01:08:41;;;;;;;8.13;5.20;;;;;;;;;;5093442;28;20586;-68
2022/04/10 01:11:08;;;;;;;8.80;4.35;;;;;;;;;;5093141;28;20198;-69
2022/04/10 01:13:35;;;;;;;7.43;3.67;;;;;;;;;;5093071;28;20196;-68
2022/04/10 01:16:03;;;;;;;7.88;4.55;;;;;;;;;;5093107;28;20218;-67
2022/04/10 01:18:33;;;;;;;5.25;4.22;;;;;;;;;;5093072;28;20657;-68
2022/04/10 01:21:03;;;;;;;8.90;3.97;;;;;;;;;;5093181;28;20205;-69
2022/04/10 01:23:32;;;;;;;10.50;5.20;;;;;;;;;;5093308;28;20189;-68
2022/04/10 01:25:59;;;;;;;7.40;4.60;;;;;;;;;;5096557;28;20233;-68
2022/04/10 01:28:26;;;;;;;7.60;4.95;;;;;;;;;;5097619;28;20203;-68
2022/04/10 01:30:53;;;;;;;10.48;5.78;;;;;;;;;;5097154;28;20194;-68
2022/04/10 01:33:21;;;;;;;16.92;6.78;;;;;;;;;;5097596;28;20551;-68
2022/04/10 01:35:49;;;;;;;12.73;7.63;;;;;;;;;;5097312;28;20219;-68
2022/04/10 01:38:16;;;;;;;13.90;7.85;;;;;;;;;;5097423;28;20199;-68
2022/04/10 01:40:47;;;;;;;12.10;7.60;;;;;;;;;;5096920;28;20193;-68
2022/04/10 01:43:14;;;;;;;10.75;7.22;;;;;;;;;;5097094;28;20184;-68
2022/04/10 01:45:41;;;;;;;13.00;8.57;;;;;;;;;;5096809;28;20238;-68
2022/04/10 01:48:08;;;;;;;14.48;6.97;;;;;;;;;;5097019;28;20313;-68
2022/04/10 01:50:36;;;;;;;12.07;7.22;;;;;;;;;;5096710;28;20190;-68
2022/04/10 01:53:05;;;;;;;12.90;7.65;;;;;;;;;;5096735;28;20289;-68
2022/04/10 01:55:32;;;;;;;16.05;6.20;;;;;;;;;;5096597;28;20214;-68
2022/04/10 01:58:00;;;;;;;9.40;6.68;;;;;;;;;;5097023;28;20212;-68
2022/04/10 02:00:28;;;;;;;11.38;6.22;;;;;;;;;;5096888;28;20194;-68
2022/04/10 02:02:55;;;;;;;10.52;5.88;;;;;;;;;;5096917;28;20671;-68
2022/04/10 02:05:22;;;;;;;12.23;6.65;;;;;;;;;;5096733;28;20197;-68
2022/04/10 02:07:49;;;;;;;14.25;8.07;;;;;;;;;;5096804;28;20198;-68
2022/04/10 02:10:17;;;;;;;9.85;7.07;;;;;;;;;;5096906;28;20193;-68
2022/04/10 02:12:44;;;;;;;19.55;6.80;;;;;;;;;;5096770;28;20225;-68
2022/04/10 02:15:12;;;;;;;12.00;6.95;;;;;;;;;;5096536;28;20202;-70
2022/04/10 02:17:40;;;;;;;24.52;7.63;;;;;;;;;;5096999;28;20285;-69
2022/04/10 02:20:07;;;;;;;9.27;7.07;;;;;;;;;;5096602;28;20198;-69
2022/04/10 02:22:34;;;;;;;10.95;6.30;;;;;;;;;;5096611;28;20200;-69
2022/04/10 02:25:02;;;;;;;15.20;6.70;;;;;;;;;;5096503;28;20280;-68
2022/04/10 02:27:29;;;;;;;15.45;8.55;;;;;;;;;;5096010;28;20195;-69
2022/04/10 02:29:57;;;;;;;13.63;7.03;;;;;;;;;;5096244;28;20193;-69
2022/04/10 02:32:25;;;;;;;19.27;7.40;;;;;;;;;;5096303;28;20201;-69
2022/04/10 02:34:52;;;;;;;15.23;8.13;;;;;;;;;;5095903;28;20280;-69
2022/04/10 02:37:20;;;;;;;11.27;7.63;;;;;;;;;;5094792;28;20360;-69
2022/04/10 02:39:47;;;;;;;15.40;8.85;;;;;;;;;;5096019;28;20206;-68
2022/04/10 02:42:14;;;;;;;12.75;8.73;;;;;;;;;;5095860;28;20195;-69
2022/04/10 02:44:41;;;;;;;11.90;7.35;;;;;;;;;;5096136;28;20294;-68
2022/04/10 02:47:09;;;;;;;16.23;8.77;;;;;;;;;;5096313;28;20702;-68
2022/04/10 02:49:37;;;;;;;16.15;8.75;;;;;;;;;;5095671;28;20197;-69
2022/04/10 02:52:05;;;;;;;9.40;8.10;;;;;;;;;;5095655;28;20199;-68
2022/04/10 02:54:32;;;;;;;11.98;8.00;;;;;;;;;;5095634;28;20200;-69
2022/04/10 02:56:59;;;;;;;19.95;7.85;;;;;;;;;;5095327;28;20218;-68
2022/04/10 02:59:27;;;;;;;11.55;7.60;;;;;;;;;;5095889;28;20202;-69
2022/04/10 03:01:54;;;;;;;17.33;9.55;;;;;;;;;;5095962;28;20276;-68
2022/04/10 03:04:21;;;;;;;14.27;7.97;;;;;;;;;;5095772;28;20200;-68
2022/04/10 03:06:50;;;;;;;15.38;8.10;;;;;;;;;;5095707;28;20193;-67
2022/04/10 03:09:17;;;;;;;10.40;8.95;;;;;;;;;;5095330;28;20194;-68
2022/04/10 03:11:44;;;;;;;13.65;9.43;;;;;;;;;;5095068;28;20288;-68
2022/04/10 03:14:11;;;;;;;14.82;7.93;;;;;;;;;;5095392;28;20200;-68
2022/04/10 03:16:39;;;;;;;16.15;7.50;;;;;;;;;;5095012;28;20245;-68
2022/04/10 03:19:06;;;;;;;11.07;7.53;;;;;;;;;;5095332;28;20655;-68
2022/04/10 03:21:34;;;;;;;13.20;7.70;;;;;;;;;;5094856;28;20198;-67
2022/04/10 03:24:02;;;;;;;13.68;7.90;;;;;;;;;;5095615;28;20201;-68
2022/04/10 03:26:30;;;;;;;18.63;8.55;;;;;;;;;;5095460;28;20210;-68
2022/04/10 03:28:57;;;;;;;10.32;8.27;;;;;;;;;;5095445;28;20194;-68
2022/04/10 03:31:25;;;;;;;15.35;7.70;;;;;;;;;;5095340;28;20209;-69
2022/04/10 03:33:53;;;;;;;17.83;8.32;;;;;;;;;;5094975;28;20292;-68
2022/04/10 03:36:20;;;;;;;12.35;7.25;;;;;;;;;;5095034;28;20306;-68
2022/04/10 03:38:47;;;;;;;20.63;8.02;;;;;;;;;;5094917;28;20277;-68
2022/04/10 03:41:16;;;;;;;11.13;7.65;;;;;;;;;;5094789;28;20198;-69
2022/04/10 03:43:43;;;;;;;11.00;8.15;;;;;;;;;;5094744;28;20194;-69
2022/04/10 03:46:10;;;;;;;15.35;9.35;;;;;;;;;;5094430;28;20198;-68
2022/04/10 03:48:37;;;;;;;14.80;8.75;;;;;;;;;;5094025;28;20214;-68
2022/04/10 03:51:04;;;;;;;16.40;9.00;;;;;;;;;;5094724;28;20194;-68
2022/04/10 03:53:32;;;;;;;17.02;7.72;;;;;;;;;;5094640;28;20193;-68
2022/04/10 03:55:59;;;;;;;15.05;9.13;;;;;;;;;;5094493;28;20308;-68
2022/04/10 03:58:27;;;;;;;12.45;7.93;;;;;;;;;;5094669;28;20194;-68
2022/04/10 04:00:55;;;;;;;14.63;6.80;;;;;;;;;;5094135;28;20237;-67
2022/04/10 04:03:22;;;;;;;18.65;8.38;;;;;;;;;;5094168;28;20562;-68
2022/04/10 04:05:49;;;;;;;10.65;7.88;;;;;;;;;;5094064;28;20190;-68
2022/04/10 04:08:16;;;;;;;13.77;7.55;;;;;;;;;;5094023;28;20202;-68
2022/04/10 04:10:44;;;;;;;13.95;8.25;;;;;;;;;;5094169;28;20561;-68
2022/04/10 04:13:11;;;;;;;13.00;7.65;;;;;;;;;;5093932;28;20198;-69
2022/04/10 04:15:39;;;;;;;16.02;8.07;;;;;;;;;;5094171;28;20678;-69
2022/04/10 04:18:07;;;;;;;15.50;9.02;;;;;;;;;;5094013;28;20317;-69
2022/04/10 04:20:34;;;;;;;13.77;7.55;;;;;;;;;;5094967;28;20201;-69
2022/04/10 04:23:01;;;;;;;11.07;7.78;;;;;;;;;;5093752;28;20288;-69
2022/04/10 04:25:29;;;;;;;16.10;8.95;;;;;;;;;;5094145;28;20194;-68
2022/04/10 04:27:56;;;;;;;11.80;7.82;;;;;;;;;;5094281;28;20210;-69
2022/04/10 04:30:23;;;;;;;15.45;8.68;;;;;;;;;;5094078;28;20207;-69
2022/04/10 04:32:52;;;;;;;16.27;7.82;;;;;;;;;;5093844;28;20573;-69
2022/04/10 04:35:19;;;;;;;13.48;8.00;;;;;;;;;;5094027;28;20288;-69
2022/04/10 04:37:46;;;;;;;20.35;9.40;;;;;;;;;;5094083;28;20220;-70
2022/04/10 04:40:15;;;;;;;15.73;10.43;;;;;;;;;;5093912;28;20201;-69
2022/04/10 04:42:42;;;;;;;12.90;8.13;;;;;;;;;;5093500;28;20285;-69
2022/04/10 04:45:10;;;;;;;17.45;8.73;;;;;;;;;;5093870;28;20201;-69
2022/04/10 04:47:37;;;;;;;12.27;8.27;;;;;;;;;;5093503;28;20578;-69
2022/04/10 04:50:07;;;;;;;15.52;9.05;;;;;;;;;;5093475;28;20654;-69
2022/04/10 04:52:35;;;;;;;18.15;10.25;;;;;;;;;;5093387;28;20281;-69
2022/04/10 04:55:02;;;;;;;15.70;7.60;;;;;;;;;;5093897;28;20215;-69
2022/04/10 04:57:29;;;;;;;13.15;8.02;;;;;;;;;;5093129;28;20254;-68
2022/04/10 04:59:57;;;;;;;25.13;8.05;;;;;;;;;;5093142;28;20554;-69
2022/04/10 05:02:24;;;;;;;19.65;8.98;;;;;;;;;;5093176;28;20232;-69
2022/04/10 05:04:52;;;;;;;12.98;7.10;;;;;;;;;;5092929;28;20197;-68
2022/04/10 05:07:21;;;;;;;23.10;9.07;;;;;;;;;;5093827;28;20229;-68
2022/04/10 05:09:48;;;;;;;15.68;8.48;;;;;;;;;;5093625;28;20194;-69
2022/04/10 05:12:15;;;;;;;15.75;8.63;;;;;;;;;;5093357;28;20610;-69
2022/04/10 05:14:42;;;;;;;14.95;9.02;;;;;;;;;;5093187;28;20200;-69
2022/04/10 05:17:09;;;;;;;14.95;8.23;;;;;;;;;;5093062;28;20308;-68
2022/04/10 05:19:37;;;;;;;11.25;7.90;;;;;;;;;;5092947;28;20189;-69
2022/04/10 05:22:04;;;;;;;16.42;7.80;;;;;;;;;;5092916;28;20193;-69
2022/04/10 05:24:32;;;;;;;21.88;7.32;;;;;;;;;;5093529;28;20193;-69
2022/04/10 05:27:00;;;;;;;14.38;8.18;;;;;;;;;;5093078;28;20233;-68
2022/04/10 05:29:27;;;;;;;17.42;9.70;;;;;;;;;;5093227;28;20193;-69
2022/04/10 05:31:54;;;;;;;20.48;8.48;;;;;;;;;;5092703;28;20666;-69
2022/04/10 05:34:21;;;;;;;16.13;8.25;;;;;;;;;;5092934;28;20678;-69
2022/04/10 05:36:48;;;;;;;12.90;8.27;;;;;;;;;;5093171;28;20221;-69
2022/04/10 05:39:16;;;;;;;17.65;10.52;;;;;;;;;;5093069;28;20190;-69
2022/04/10 05:41:44;;;;;;;13.80;9.30;;;;;;;;;;5093475;28;20665;-69
2022/04/10 05:44:11;;;;;;;16.23;9.20;;;;;;;;;;5093184;28;20190;-69
2022/04/10 05:46:39;;;;;;;14.45;7.93;;;;;;;;;;5093089;28;20228;-69
2022/04/10 05:49:06;;;;;;;11.48;8.25;;;;;;;;;;5093198;28;20190;-69
2022/04/10 05:51:34;;;;;;;15.63;9.05;;;;;;;;;;5093088;28;20198;-69
2022/04/10 05:54:01;;;;;;;18.38;8.07;;;;;;;;;;5093101;28;20202;-69
2022/04/10 05:56:28;;;;;;;11.43;8.32;;;;;;;;;;5092895;28;20281;-68
2022/04/10 05:58:57;;;;;;;17.02;9.48;;;;;;;;;;5093359;28;20236;-69
2022/04/10 06:01:25;;;;;;;15.90;10.05;;;;;;;;;;5092524;28;20279;-68
2022/04/10 06:03:53;;;;;;;18.85;8.90;;;;;;;;;;5092569;28;20230;-68
2022/04/10 06:06:20;;;;;;;15.68;7.90;;;;;;;;;;5092682;28;20200;-68
2022/04/10 06:08:47;;;;;;;10.32;7.90;;;;;;;;;;5093133;28;20193;-68
2022/04/10 06:11:14;;;;;;;13.45;8.43;;;;;;;;;;5094947;28;20189;-68
2022/04/10 06:13:41;;;;;;;14.98;8.02;;;;;;;;;;5096366;28;20237;-68
2022/04/10 06:16:10;;;;;;;10.85;8.40;;;;;;;;;;5096598;28;20198;-68
2022/04/10 06:18:37;;;;;;;8.85;7.00;;;;;;;;;;5096212;28;20221;-68
2022/04/10 06:21:04;;;;;;;12.63;7.78;;;;;;;;;;5096613;28;20194;-68
2022/04/10 06:23:31;;;;;;;12.15;8.93;;;;;;;;;;5096324;28;20285;-69
2022/04/10 06:25:58;;;;;;;10.40;8.23;;;;;;;;;;5096687;28;20201;-69
2022/04/10 06:28:26;;;;;;;14.38;7.55;;;;;;;;;;5096189;28;20204;-69
2022/04/10 06:30:53;;;;;;;17.00;7.95;;;;;;;;;;5096357;28;20211;-69
2022/04/10 06:33:21;;;;;;;11.20;6.30;;;;;;;;;;5095689;28;20688;-68
2022/04/10 06:35:48;;;;;;;9.98;7.55;;;;;;;;;;5096029;28;20200;-69
2022/04/10 06:38:16;;;;;;;23.05;7.82;;;;;;;;;;5096020;28;20224;-69
2022/04/10 06:40:43;;;;;;;9.82;7.18;;;;;;;;;;5096563;28;20194;-68
2022/04/10 06:43:10;;;;;;;15.05;6.22;;;;;;;;;;5095807;28;20284;-68
2022/04/10 06:45:38;;;;;;;11.15;7.30;;;;;;;;;;5096501;28;20221;-68
2022/04/10 06:48:06;;;;;;;14.00;6.57;;;;;;;;;;5095959;28;20231;-68
2022/04/10 06:50:35;;;;;;;8.90;6.05;;;;;;;;;;5095591;28;20206;-68
2022/04/10 06:53:02;;;;;;;19.63;6.82;;;;;;;;;;5096007;28;20194;-68
2022/04/10 06:55:31;;;;;;;9.45;6.15;;;;;;;;;;5095884;28;20527;-68
2022/04/10 06:57:58;;;;;;;11.60;6.32;;;;;;;;;;5095854;28;20230;-68
2022/04/10 07:00:25;;;;;;;9.30;5.90;;;;;;;;;;5095788;28;20280;-69
2022/04/10 07:02:53;;;;;;;10.35;6.22;;;;;;;;;;5095346;28;20240;-68
2022/04/10 07:05:21;;;;;;;18.95;6.20;;;;;;;;;;5095305;28;20702;-68
2022/04/10 07:07:49;;;;;;;12.50;6.80;;;;;;;;;;5096182;28;20284;-69
2022/04/10 07:10:17;;;;;;;11.57;7.07;;;;;;;;;;5095343;28;20667;-69
2022/04/10 07:12:44;;;;;;;11.38;5.75;;;;;;;;;;5095620;28;20197;-69
2022/04/10 07:15:12;;;;;;;6.60;5.00;;;;;;;;;;5095448;28;20212;-68
2022/04/10 07:17:39;;;;;;;7.25;4.78;;;;;;;;;;5095122;28;20581;-69
2022/04/10 07:20:07;;;;;;;10.48;5.25;;;;;;;;;;5095537;28;20288;-68
2022/04/10 07:25:21;;;;;;;10.57;4.50;;;;;;;;;;5095227;28;20206;-69
2022/04/10 07:27:48;;;;;;;9.55;4.68;;;;;;;;;;5094171;28;20231;-69
2022/04/10 07:30:15;;;;;;;5.15;3.92;;;;;;;;;;5095494;28;20530;-69
2022/04/10 07:32:43;;;;;;;7.70;3.75;;;;;;;;;;5094976;28;20198;-69
2022/04/10 07:35:10;;;;;;;5.57;3.55;;;;;;;;;;5095046;28;20289;-69
2022/04/10 07:37:38;;;;;;;10.65;4.00;;;;;;;;;;5094765;28;20214;-69
2022/04/10 07:40:05;;;;;;;4.50;3.78;;;;;;;;;;5094869;28;20746;-69
2022/04/10 07:42:39;;;;;;;12.73;4.88;;;;;;;;;;5094556;28;20651;-69
2022/04/10 07:45:07;;;;;;;4.78;3.13;;;;;;;;;;5095096;28;20627;-69
2022/04/10 07:47:33;;;;;;;6.07;3.30;;;;;;;;;;5094672;28;20232;-69
2022/04/10 07:50:00;;;;;;;14.02;3.92;;;;;;;;;;5094661;28;20192;-70
2022/04/10 07:52:27;;;;;;;7.20;3.38;;;;;;;;;;5094670;28;20200;-70
2022/04/10 07:54:55;;;;;;;8.20;2.65;;;;;;;;;;5094251;28;20284;-69
2022/04/10 07:57:22;;;;;;;6.25;2.58;;;;;;;;;;5094424;28;20227;-70
2022/04/10 07:59:50;;;;;;;13.50;3.00;;;;;;;;;;5094916;28;20197;-74
2022/04/10 08:02:18;;;;;;;8.27;3.95;;;;;;;;;;5094475;28;20193;-68
2022/04/10 08:04:45;;;;;;;2.85;2.60;;;;;;;;;;5094572;28;20614;-70
2022/04/10 08:07:12;;;;;;;2.92;2.35;;;;;;;;;;5094515;28;20209;-69
2022/04/10 08:09:39;;;;;;;12.15;3.25;;;;;;;;;;5094417;28;20196;-68
2022/04/10 08:12:07;;;;;;;6.57;2.40;;;;;;;;;;5094749;28;20247;-68
2022/04/10 08:14:34;;;;;;;5.65;2.55;;;;;;;;;;5094934;28;20230;-69
2022/04/10 08:17:03;;;;;;;3.78;2.40;;;;;;;;;;5094419;28;20286;-69
2022/04/10 08:19:30;;;;;;;8.80;4.35;;;;;;;;;;5094675;28;20195;-68
2022/04/10 08:21:57;;;;;;;9.35;3.00;;;;;;;;;;5094161;28;20287;-68
2022/04/10 08:24:24;;;;;;;3.70;2.65;;;;;;;;;;5094270;28;20191;-69
2022/04/10 08:26:51;;;;;;;5.90;3.05;;;;;;;;;;5094498;28;20258;-68
2022/04/10 08:29:19;;;;;;;3.58;3.28;;;;;;;;;;5094438;28;20652;-69
2022/04/10 08:31:46;;;;;;;4.40;2.88;;;;;;;;;;5094014;28;20293;-69
2022/04/10 08:34:14;;;;;;;13.00;3.22;;;;;;;;;;5093865;28;20197;-69
2022/04/10 08:36:42;;;;;;;13.00;3.83;;;;;;;;;;5093734;28;20195;-69
2022/04/10 08:39:09;;;;;;;7.38;2.92;;;;;;;;;;5094053;28;20215;-68
2022/04/10 08:41:38;;;;;;;4.65;2.75;;;;;;;;;;5094208;28;20553;-68
2022/04/10 08:44:06;;;;;;;3.53;2.90;;;;;;;;;;5093985;28;20277;-69
2022/04/10 08:46:34;;;;;;;8.02;3.65;;;;;;;;;;5093378;28;20694;-68
2022/04/10 08:49:01;;;;;;;9.00;3.60;;;;;;;;;;5094122;28;20194;-68
2022/04/10 08:51:31;;;;;;;3.80;2.22;;;;;;;;;;5093869;28;20191;-68
2022/04/10 08:54:01;;;;;;;13.00;2.80;;;;;;;;;;5094029;28;20281;-68
2022/04/10 08:56:28;;;;;;;2.33;2.03;;;;;;;;;;5094121;28;20185;-68
2022/04/10 08:58:56;;;;;;;4.95;2.50;;;;;;;;;;5093513;28;20579;-67
2022/04/10 09:01:23;;;;;;;9.15;2.22;;;;;;;;;;5093752;28;20194;-68
2022/04/10 09:03:51;;;;;;;8.30;2.30;;;;;;;;;;5093715;28;20282;-69
2022/04/10 09:06:18;;;;;;;10.70;3.17;;;;;;;;;;5094275;28;20550;-68
2022/04/10 09:08:46;;;;;;;4.70;2.70;;;;;;;;;;5094011;28;20199;-70
2022/04/10 09:11:14;;;;;;;9.65;2.50;;;;;;;;;;5093334;28;20199;-68
2022/04/10 09:13:43;;;;;;;4.82;2.60;;;;;;;;;;5094059;28;20196;-68
2022/04/10 09:16:12;;;;;;;6.38;3.00;;;;;;;;;;5093940;28;20194;-68
2022/04/10 09:18:50;;;;;;;5.72;2.50;;;;;;;;;;5093666;28;20219;-68
2022/04/10 09:21:18;;;;;;;2.22;1.88;;;;;;;;;;5093594;28;20199;-68
2022/04/10 09:23:53;;;;;;;6.47;2.40;;;;;;;;;;5093499;28;20286;-68
2022/04/10 09:26:20;;;;;;;10.27;3.63;;;;;;;;;;5093848;28;20603;-68
2022/04/10 09:28:48;;;;;;;3.90;2.08;;;;;;;;;;5093607;28;20201;-68
2022/04/10 09:31:29;;;;;;;4.05;2.65;;;;;;;;;;5093089;28;20287;-68
2022/04/10 09:33:56;;;;;;;1.50;1.40;;;;;;;;;;5093237;28;20196;-69
2022/04/10 09:36:33;;;;;;;3.85;2.25;;;;;;;;;;5093467;28;20203;-69
2022/04/10 09:39:02;;;;;;;2.97;2.75;;;;;;;;;;5093414;28;20223;-68
2022/04/10 09:41:29;;;;;;;6.47;2.30;;;;;;;;;;5093061;28;20226;-68
2022/04/10 09:44:00;;;;;;;5.60;3.08;;;;;;;;;;5093184;28;20689;-70
2022/04/10 09:46:29;;;;;;;9.38;2.55;;;;;;;;;;5095610;28;20222;-69
2022/04/10 09:48:57;;;;;;;3.70;2.90;;;;;;;;;;5098205;28;20591;-70
2022/04/10 09:51:24;;;;;;;3.35;2.60;;;;;;;;;;5096967;28;20194;-69
2022/04/10 09:54:05;;;;;;;3.22;2.83;;;;;;;;;;5097416;28;20214;-69
2022/04/10 09:56:33;;;;;;;2.08;1.67;;;;;;;;;;5096933;28;20210;-69
2022/04/10 09:59:01;;;;;;;7.43;2.53;;;;;;;;;;5097464;28;20215;-69
2022/04/10 10:01:29;;;;;;;4.15;2.10;;;;;;;;;;5097051;28;20231;-69
2022/04/10 10:03:57;;;;;;;2.92;2.15;;;;;;;;;;5097269;28;20193;-70
2022/04/10 10:06:25;;;;;;;2.67;1.83;;;;;;;;;;5097020;28;20677;-69
2022/04/10 10:08:53;;;;;;;11.45;2.20;;;;;;;;;;5096906;28;20212;-70
2022/04/10 10:11:22;;;;;;;3.72;2.00;;;;;;;;;;5096908;28;20206;-70
2022/04/10 10:13:52;;;;;;;7.25;2.15;;;;;;;;;;5097109;28;20192;-70
2022/04/10 10:16:20;;;;;;;3.00;1.95;;;;;;;;;;5096775;28;20208;-69
2022/04/10 10:18:47;;;;;;;2.33;1.73;;;;;;;;;;5096489;28;20216;-69
2022/04/10 10:21:15;;;;;;;4.50;2.10;;;;;;;;;;5096354;28;20196;-70
2022/04/10 10:23:45;;;;;;;4.72;2.40;;;;;;;;;;5096588;28;20214;-69
2022/04/10 10:26:25;;;;;;;2.53;1.80;;;;;;;;;;5096578;28;20201;-69
2022/04/10 10:28:57;;;;;;;7.90;2.35;;;;;;;;;;5096913;28;20648;-69
2022/04/10 10:31:34;;;;;;;4.82;2.10;;;;;;;;;;5096618;28;20277;-69
2022/04/10 10:34:03;;;;;;;6.95;2.13;;;;;;;;;;5096545;28;20786;-69
2022/04/10 10:36:31;;;;;;;3.47;2.28;;;;;;;;;;5096182;28;20733;-69
2022/04/10 10:38:59;;;;;;;2.63;1.90;;;;;;;;;;5096857;28;20544;-69
2022/04/10 10:41:33;;;;;;;4.80;1.90;;;;;;;;;;5096360;28;20557;-69
2022/04/10 10:44:16;;;;;;;6.07;2.60;;;;;;;;;;5096319;28;20197;-68
2022/04/10 10:46:57;;;;;;;5.78;2.30;;;;;;;;;;5095916;28;20316;-68
2022/04/10 10:49:24;;;;;;;2.75;1.92;;;;;;;;;;5096159;28;20193;-69
2022/04/10 10:51:52;;;;;;;2.90;1.80;;;;;;;;;;5096496;28;20199;-68
2022/04/10 10:54:21;;;;;;;2.85;1.90;;;;;;;;;;5096222;28;20205;-68
2022/04/10 10:56:50;;;;;;;6.15;1.60;;;;;;;;;;5095078;28;20215;-68
2022/04/10 10:59:23;;;;;;;2.53;1.85;;;;;;;;;;5096353;28;20213;-68
2022/04/10 11:01:57;;;;;;;2.40;1.98;;;;;;;;;;5096257;28;20189;-68
2022/04/10 11:04:28;;;;;;;2.65;1.65;;;;;;;;;;5095635;28;20181;-70
2022/04/10 11:06:56;;;;;;;4.45;1.90;;;;;;;;;;5095468;28;20535;-70
2022/04/10 11:09:24;;;;;;;4.70;2.25;;;;;;;;;;5095508;28;20598;-70
2022/04/10 11:11:52;;;;;;;6.50;2.05;;;;;;;;;;5096392;28;20269;-69
2022/04/10 11:14:37;;;;;;;5.10;2.30;;;;;;;;;;5095433;28;20254;-70
2022/04/10 11:17:15;;;;;;;2.03;1.85;;;;;;;;;;5095878;28;20227;-69
2022/04/10 11:19:43;;;;;;;3.40;2.30;;;;;;;;;;5095874;28;20303;-68
2022/04/10 11:22:13;;;;;;;12.85;3.30;;;;;;;;;;5095304;28;20657;-69
2022/04/10 11:24:41;;;;;;;6.72;1.98;;;;;;;;;;5095298;28;20181;-69
2022/04/10 11:27:12;;;;;;;4.57;1.90;;;;;;;;;;5095144;28;20620;-69
2022/04/10 11:29:50;;;;;;;4.75;1.60;;;;;;;;;;5095706;28;20185;-69
2022/04/10 11:32:19;;;;;;;4.63;2.47;;;;;;;;;;5086008;28;20215;-68
2022/04/10 11:34:59;;;;;;;2.55;1.83;;;;;;;;;;5074833;28;20662;-69
2022/04/10 11:37:26;;;;;;;3.33;2.05;;;;;;;;;;5075157;28;20189;-69
2022/04/10 11:39:56;;;;;;;7.28;3.97;;;;;;;;;;5074702;28;20317;-69
2022/04/10 11:42:23;;;;;;;3.05;1.70;;;;;;;;;;5075716;28;20714;-69
2022/04/10 11:44:53;;;;;;;3.90;1.80;;;;;;;;;;5074586;28;20200;-69
2022/04/10 11:47:21;;;;;;;4.85;1.60;;;;;;;;;;5074994;28;20225;-69
2022/04/10 11:49:53;;;;;;;5.38;2.30;;;;;;;;;;5074902;28;20214;-69
2022/04/10 11:52:21;;;;;;;2.30;1.80;;;;;;;;;;5074415;28;20239;-68
2022/04/10 11:54:48;;;;;;;2.45;1.63;;;;;;;;;;5074414;28;20195;-69
2022/04/10 11:57:15;;;;;;;4.30;1.92;;;;;;;;;;5074413;28;20667;-70
2022/04/10 11:59:43;;;;;;;3.30;1.85;;;;;;;;;;5074601;28;20252;-70
2022/04/10 12:02:12;;;;;;;2.55;2.15;;;;;;;;;;5074622;28;20195;-70
2022/04/10 12:04:40;;;;;;;3.53;1.60;;;;;;;;;;5074564;28;20579;-70
2022/04/10 12:07:12;;;;;;;1.83;1.73;;;;;;;;;;5074585;28;20197;-70
2022/04/10 12:09:39;;;;;;;3.75;1.85;;;;;;;;;;5073791;28;20234;-70
2022/04/10 12:12:06;;;;;;;4.63;1.98;;;;;;;;;;5074139;28;20288;-70
2022/04/10 12:14:34;;;;;;;4.95;1.75;;;;;;;;;;5074535;28;20201;-70
2022/04/10 12:17:01;;;;;;;3.85;1.88;;;;;;;;;;5074789;28;20239;-70
2022/04/10 12:19:34;;;;;;;2.78;1.90;;;;;;;;;;5074108;28;20214;-70
2022/04/10 12:22:02;;;;;;;1.80;1.70;;;;;;;;;;5074099;28;20269;-70
2022/04/10 12:24:30;;;;;;;4.10;1.95;;;;;;;;;;5074237;28;20199;-71
2022/04/10 12:26:58;;;;;;;2.45;1.75;;;;;;;;;;5073914;28;20197;-69
2022/04/10 12:29:26;;;;;;;3.72;1.83;;;;;;;;;;5074035;28;20200;-70
2022/04/10 12:31:54;;;;;;;5.07;1.80;;;;;;;;;;5074120;28;20208;-70
2022/04/10 12:34:22;;;;;;;5.28;2.55;;;;;;;;;;5074398;28;20212;-68
2022/04/10 12:36:51;;;;;;;3.17;2.10;;;;;;;;;;5073749;28;20651;-68
2022/04/10 12:39:25;;;;;;;3.78;2.15;;;;;;;;;;5086894;28;20224;-70
2022/04/10 12:42:02;;;;;;;2.47;1.60;;;;;;;;;;5093701;28;20242;-69
2022/04/10 12:44:29;;;;;;;2.33;2.05;;;;;;;;;;5093831;28;20646;-70
2022/04/10 12:46:57;;;;;;;4.28;2.08;;;;;;;;;;5094130;28;20224;-70
2022/04/10 12:49:25;;;;;;;2.45;2.00;;;;;;;;;;5093707;28;20215;-70
2022/04/10 12:51:54;;;;;;;5.13;3.03;;;;;;;;;;5094071;28;20204;-70
2022/04/10 12:54:34;;;;;;;2.38;2.17;;;;;;;;;;5093427;28;20203;-69
2022/04/10 12:57:01;;;;;;;3.63;1.95;;;;;;;;;;5093687;28;20630;-70
2022/04/10 12:59:35;;;;;;;7.57;2.13;;;;;;;;;;5093265;28;20330;-70
2022/04/10 13:02:03;;;;;;;4.00;1.73;;;;;;;;;;5093718;28;20558;-70
2022/04/10 13:04:30;;;;;;;3.47;1.80;;;;;;;;;;5093451;28;20287;-70
2022/04/10 13:06:59;;;;;;;2.13;1.92;;;;;;;;;;5093631;28;20283;-70
2022/04/10 13:09:27;;;;;;;1.90;1.70;;;;;;;;;;5093841;28;20205;-70
2022/04/10 13:11:54;;;;;;;1.88;1.77;;;;;;;;;;5093673;28;20298;-71
2022/04/10 13:14:21;;;;;;;6.82;2.20;;;;;;;;;;5093661;28;20241;-70
2022/04/10 13:16:49;;;;;;;2.70;1.60;;;;;;;;;;5093707;28;20299;-70
2022/04/10 13:19:17;;;;;;;3.05;1.63;;;;;;;;;;5093311;28;20212;-70
2022/04/10 13:21:45;;;;;;;2.35;1.67;;;;;;;;;;5092381;28;20204;-71
2022/04/10 13:24:14;;;;;;;5.15;2.00;;;;;;;;;;5093248;28;20203;-70
2022/04/10 13:26:42;;;;;;;2.67;1.90;;;;;;;;;;5093757;28;20222;-70
2022/04/10 13:29:09;;;;;;;6.53;4.30;;;;;;;;;;5093704;28;20196;-70
2022/04/10 13:31:37;;;;;;;5.32;2.63;;;;;;;;;;5093392;28;20592;-70
2022/04/10 13:34:05;;;;;;;3.15;1.60;;;;;;;;;;5093466;28;20204;-70
2022/04/10 13:36:32;;;;;;;2.83;1.80;;;;;;;;;;5093748;28;20287;-70
2022/04/10 13:38:59;;;;;;;5.45;2.38;;;;;;;;;;5092704;28;20199;-70
2022/04/10 13:41:28;;;;;;;2.50;2.05;;;;;;;;;;5093211;28;20283;-70
2022/04/10 13:43:57;;;;;;;6.47;2.40;;;;;;;;;;5093013;28;20283;-70
2022/04/10 13:46:24;;;;;;;4.80;1.80;;;;;;;;;;5093376;28;20230;-70
2022/04/10 13:48:52;;;;;;;4.55;1.67;;;;;;;;;;5093437;28;20219;-69
2022/04/10 13:51:19;;;;;;;3.67;2.10;;;;;;;;;;5093391;28;20200;-70
2022/04/10 13:53:46;;;;;;;2.50;2.30;;;;;;;;;;5093315;28;20204;-70
2022/04/10 13:56:13;;;;;;;2.38;2.17;;;;;;;;;;5093369;28;20563;-70
2022/04/10 13:58:42;;;;;;;3.35;2.10;;;;;;;;;;5092975;28;20287;-70
2022/04/10 14:01:09;;;;;;;1.75;1.45;;;;;;;;;;5092682;28;20229;-69
2022/04/10 14:03:36;;;;;;;2.15;1.90;;;;;;;;;;5093223;28;20189;-69
2022/04/10 14:06:04;;;;;;;1.95;1.73;;;;;;;;;;5093221;28;20208;-69
2022/04/10 14:08:31;;;;;;;2.17;1.80;;;;;;;;;;5093150;28;20286;-70
2022/04/10 14:10:58;;;;;;;6.10;2.05;;;;;;;;;;5093173;28;20203;-71
2022/04/10 14:13:25;;;;;;;8.80;2.30;;;;;;;;;;5093182;28;20200;-70
2022/04/10 14:15:54;;;;;;;2.97;2.70;;;;;;;;;;5093337;28;20800;-70
2022/04/10 14:18:21;;;;;;;2.80;2.33;;;;;;;;;;5092855;28;20284;-71
2022/04/10 14:20:48;;;;;;;2.70;1.97;;;;;;;;;;5092626;28;20214;-70
2022/04/10 14:23:16;;;;;;;3.30;1.80;;;;;;;;;;5093102;28;20450;-69
2022/04/10 14:25:44;;;;;;;3.23;1.80;;;;;;;;;;5092922;28;20442;-70
2022/04/10 14:28:11;;;;;;;2.50;1.83;;;;;;;;;;5093428;28;20443;-69
2022/04/10 14:30:39;;;;;;;2.43;2.20;;;;;;;;;;5092637;28;20482;-70
2022/04/10 14:33:07;;;;;;;3.27;2.00;;;;;;;;;;5096202;28;20541;-70
2022/04/10 14:35:34;;;;;;;2.80;2.10;;;;;;;;;;5096420;28;20451;-70
2022/04/10 14:38:02;;;;;;;2.17;1.67;;;;;;;;;;5096455;28;20451;-70
2022/04/10 14:40:29;;;;;;;4.83;2.07;;;;;;;;;;5096240;28;20503;-69
2022/04/10 14:42:56;;;;;;;5.73;3.07;;;;;;;;;;5095942;28;20988;-70
2022/04/10 14:45:23;;;;;;;3.03;1.50;;;;;;;;;;5095963;28;20800;-69
2022/04/10 14:47:50;;;;;;;5.13;2.10;;;;;;;;;;5096012;28;20478;-69
2022/04/10 14:50:19;;;;;;;4.13;2.87;;;;;;;;;;5096259;28;20448;-69